createdAt,value
2022-12-20T00:02:04.367Z,6.51
2022-12-20T00:04:32.043Z,6.49
2022-12-20T00:06:59.538Z,6.57
2022-12-20T00:09:27.161Z,6.45
2022-12-20T00:11:54.882Z,6.46
2022-12-20T00:14:23.770Z,6.53
2022-12-20T00:16:51.307Z,6.54
2022-12-20T00:19:18.899Z,6.59
2022-12-20T00:21:46.456Z,6.62
2022-12-20T00:24:14.330Z,6.54
2022-12-20T00:26:41.882Z,6.54
2022-12-20T00:29:09.450Z,6.57
2022-12-20T00:31:38.733Z,6.47
2022-12-20T00:34:06.371Z,6.55
2022-12-20T00:36:34.776Z,6.56
2022-12-20T00:39:02.800Z,6.57
2022-12-20T00:41:32.095Z,6.61
2022-12-20T00:43:59.705Z,6.67
2022-12-20T00:46:27.832Z,6.63
2022-12-20T00:48:57.613Z,6.68
2022-12-20T00:51:26.860Z,6.71
2022-12-20T00:53:54.766Z,6.67
2022-12-20T00:56:22.874Z,6.75
2022-12-20T00:58:50.477Z,6.78
2022-12-20T01:01:20.908Z,6.78
2022-12-20T01:03:48.487Z,6.79
2022-12-20T01:06:17.966Z,6.85
2022-12-20T01:08:45.575Z,6.83
2022-12-20T01:11:15.202Z,6.83
2022-12-20T01:13:44.591Z,6.86
2022-12-20T01:16:13.909Z,6.87
2022-12-20T01:18:41.418Z,6.91
2022-12-20T01:21:11.287Z,6.93
2022-12-20T01:23:41.150Z,7.01
2022-12-20T01:26:10.997Z,7.00
2022-12-20T01:28:40.250Z,6.92
2022-12-20T01:31:09.130Z,6.96
2022-12-20T01:33:37.731Z,6.96
2022-12-20T01:36:09.135Z,6.88
2022-12-20T01:38:37.607Z,6.84
2022-12-20T01:41:06.834Z,6.91
2022-12-20T01:43:47.989Z,6.95
2022-12-20T01:46:16.023Z,6.96
2022-12-20T01:48:47.032Z,7.03
2022-12-20T01:51:15.566Z,6.98
2022-12-20T01:53:44.008Z,6.91
2022-12-20T01:56:14.135Z,6.95
2022-12-20T01:58:43.682Z,6.93
2022-12-20T02:01:11.900Z,6.98
2022-12-20T02:03:40.666Z,6.92
2022-12-20T02:06:17.519Z,6.91
2022-12-20T02:08:46.969Z,6.91
2022-12-20T02:11:25.542Z,6.92
2022-12-20T02:14:00.555Z,6.89
2022-12-20T02:16:31.584Z,6.91
2022-12-20T02:19:01.257Z,6.95
2022-12-20T02:21:34.051Z,7.00
2022-12-20T02:24:35.436Z,6.89
2022-12-20T02:27:31.268Z,6.90
2022-12-20T02:30:07.908Z,6.90
2022-12-20T02:32:39.253Z,6.94
2022-12-20T02:35:08.584Z,6.88
2022-12-20T02:37:36.163Z,6.92
2022-12-20T02:40:05.806Z,6.85
2022-12-20T02:42:34.572Z,6.87
2022-12-20T02:45:15.348Z,6.87
2022-12-20T02:47:48.139Z,6.85
2022-12-20T02:50:18.614Z,6.88
2022-12-20T02:52:46.139Z,6.84
2022-12-20T02:55:13.726Z,6.84
2022-12-20T02:57:46.302Z,6.90
2022-12-20T03:00:16.671Z,6.87
2022-12-20T03:03:03.876Z,6.84
2022-12-20T03:05:31.659Z,6.85
2022-12-20T03:07:59.554Z,6.94
2022-12-20T03:10:27.253Z,6.87
2022-12-20T03:12:54.724Z,6.93
2022-12-20T03:15:23.793Z,7.00
2022-12-20T03:17:51.328Z,6.96
2022-12-20T03:20:18.978Z,6.97
2022-12-20T03:22:46.561Z,6.97
2022-12-20T03:25:14.062Z,6.94
2022-12-20T03:27:41.534Z,6.96
2022-12-20T03:30:09.793Z,6.90
2022-12-20T03:32:38.597Z,6.95
2022-12-20T03:35:07.211Z,6.91
2022-12-20T03:37:34.657Z,6.92
2022-12-20T03:40:02.139Z,6.93
2022-12-20T03:42:30.368Z,6.93
2022-12-20T03:44:57.909Z,7.01
2022-12-20T03:47:25.546Z,6.95
2022-12-20T03:49:54.350Z,6.92
2022-12-20T03:52:21.823Z,6.95
2022-12-20T03:54:49.325Z,6.93
2022-12-20T03:57:17.325Z,6.92
2022-12-20T03:59:44.826Z,6.91
2022-12-20T04:02:12.654Z,6.96
2022-12-20T04:04:40.258Z,6.95
2022-12-20T04:07:09.132Z,6.98
2022-12-20T04:09:37.706Z,6.95
2022-12-20T04:12:05.472Z,6.98
2022-12-20T04:14:33.074Z,6.97
2022-12-20T04:17:00.628Z,6.96
2022-12-20T04:19:28.145Z,6.95
2022-12-20T04:22:04.618Z,7.02
2022-12-20T04:24:35.886Z,7.06
2022-12-20T04:27:03.928Z,7.04
2022-12-20T04:29:32.427Z,7.06
2022-12-20T04:31:59.988Z,7.04
2022-12-20T04:34:28.735Z,7.06
2022-12-20T04:36:57.348Z,7.14
2022-12-20T04:39:25.800Z,7.10
2022-12-20T04:41:54.947Z,7.11
2022-12-20T04:44:22.487Z,7.10
2022-12-20T04:46:50.039Z,7.12
2022-12-20T04:49:17.553Z,7.12
2022-12-20T04:51:45.018Z,7.16
2022-12-20T04:54:11.490Z,7.14
2022-12-20T04:56:39.196Z,7.10
2022-12-20T04:59:08.966Z,7.14
2022-12-20T05:01:38.306Z,7.15
2022-12-20T05:04:05.941Z,7.13
2022-12-20T05:06:34.408Z,7.20
2022-12-20T05:09:03.030Z,7.19
2022-12-20T05:11:30.543Z,7.16
2022-12-20T05:13:58.032Z,7.16
2022-12-20T05:16:28.096Z,7.20
2022-12-20T05:18:56.466Z,7.19
2022-12-20T05:21:41.821Z,7.19
2022-12-20T05:24:27.637Z,7.22
2022-12-20T05:26:55.272Z,7.20
2022-12-20T05:29:23.655Z,7.26
2022-12-20T05:31:52.718Z,7.30
2022-12-20T05:34:20.247Z,7.30
2022-12-20T05:36:48.149Z,7.26
2022-12-20T05:39:15.699Z,7.29
2022-12-20T05:41:43.287Z,7.32
2022-12-20T05:44:11.024Z,7.35
2022-12-20T05:46:38.584Z,7.31
2022-12-20T05:49:07.817Z,7.32
2022-12-20T05:51:35.379Z,7.33
2022-12-20T05:54:03.129Z,7.36
2022-12-20T05:56:30.645Z,7.35
2022-12-20T05:58:59.731Z,7.30
2022-12-20T06:01:27.272Z,7.40
2022-12-20T06:03:54.872Z,7.51
2022-12-20T06:06:29.427Z,7.46
2022-12-20T06:08:57.102Z,7.44
2022-12-20T06:11:29.862Z,7.53
2022-12-20T06:13:58.451Z,7.44
2022-12-20T06:16:26.142Z,7.46
2022-12-20T06:18:53.928Z,7.49
2022-12-20T06:21:21.444Z,7.45
2022-12-20T06:23:50.350Z,7.49
2022-12-20T06:26:18.934Z,7.50
2022-12-20T06:28:46.711Z,7.55
2022-12-20T06:31:14.259Z,7.53
2022-12-20T06:33:41.880Z,7.54
2022-12-20T06:36:09.630Z,7.60
2022-12-20T06:38:37.162Z,7.50
2022-12-20T06:41:06.467Z,7.44
2022-12-20T06:43:34.062Z,7.48
2022-12-20T06:46:01.613Z,7.45
2022-12-20T06:48:29.237Z,7.45
2022-12-20T06:50:56.824Z,7.46
2022-12-20T06:53:24.425Z,7.46
2022-12-20T06:55:52.298Z,7.53
2022-12-20T06:58:21.680Z,7.50
2022-12-20T07:00:49.309Z,7.42
2022-12-20T07:03:17.157Z,7.45
2022-12-20T07:05:44.733Z,7.50
2022-12-20T07:08:12.301Z,7.49
2022-12-20T07:10:39.775Z,7.43
2022-12-20T07:13:07.300Z,7.51
2022-12-20T07:15:36.181Z,7.52
2022-12-20T07:18:04.647Z,7.49
2022-12-20T07:20:32.951Z,7.52
2022-12-20T07:23:00.532Z,7.54
2022-12-20T07:25:27.988Z,7.55
2022-12-20T07:27:55.482Z,7.50
2022-12-20T07:30:23.172Z,7.55
2022-12-20T07:32:52.384Z,7.53
2022-12-20T07:35:19.846Z,7.61
2022-12-20T07:37:47.387Z,7.66
2022-12-20T07:40:16.287Z,7.69
2022-12-20T07:42:48.557Z,7.69
2022-12-20T07:45:16.829Z,7.80
2022-12-20T07:47:44.723Z,7.75
2022-12-20T07:50:13.663Z,7.63
2022-12-20T07:52:42.609Z,7.69
2022-12-20T07:55:10.819Z,7.68
2022-12-20T07:57:42.922Z,7.61
2022-12-20T08:00:12.288Z,7.69
2022-12-20T08:02:43.373Z,7.70
2022-12-20T08:05:11.195Z,7.77
2022-12-20T08:07:41.391Z,7.74
2022-12-20T08:10:11.058Z,7.80
2022-12-20T08:12:39.218Z,7.77
2022-12-20T08:15:07.914Z,7.77
2022-12-20T08:17:35.510Z,7.83
2022-12-20T08:20:03.434Z,7.77
2022-12-20T08:22:30.979Z,7.73
2022-12-20T08:24:59.820Z,7.76
2022-12-20T08:27:27.361Z,7.81
2022-12-20T08:29:54.901Z,7.80
2022-12-20T08:32:22.409Z,7.79
2022-12-20T08:34:49.892Z,7.79
2022-12-20T08:37:17.438Z,7.84
2022-12-20T08:39:44.922Z,7.81
2022-12-20T08:42:13.765Z,7.85
2022-12-20T08:44:41.272Z,7.85
2022-12-20T08:47:08.801Z,7.88
2022-12-20T08:49:36.339Z,7.91
2022-12-20T08:52:04.206Z,7.85
2022-12-20T08:54:31.726Z,7.85
2022-12-20T08:56:59.388Z,7.92
2022-12-20T08:59:28.315Z,7.89
2022-12-20T09:01:55.933Z,7.97
2022-12-20T09:04:23.627Z,8.00
2022-12-20T09:06:51.103Z,8.10
2022-12-20T09:09:18.659Z,8.06
2022-12-20T09:11:46.513Z,8.08
2022-12-20T09:14:14.395Z,8.10
2022-12-20T09:16:44.221Z,8.09
2022-12-20T09:19:14.389Z,8.17
2022-12-20T09:21:41.944Z,8.28
2022-12-20T09:24:10.339Z,8.24
2022-12-20T09:26:38.219Z,8.27
2022-12-20T09:29:06.103Z,8.25
2022-12-20T09:31:33.600Z,8.30
2022-12-20T09:34:02.342Z,8.28
2022-12-20T09:36:33.279Z,8.41
2022-12-20T09:39:01.823Z,8.54
2022-12-20T09:41:34.205Z,8.42
2022-12-20T09:44:05.945Z,8.49
2022-12-20T09:46:33.494Z,8.62
2022-12-20T09:49:04.554Z,8.60
2022-12-20T09:52:00.217Z,8.60
2022-12-20T09:54:35.468Z,8.57
2022-12-20T09:57:08.878Z,8.59
2022-12-20T09:59:40.369Z,8.65
2022-12-20T10:02:44.022Z,8.68
2022-12-20T10:04:59.663Z,8.66
2022-12-20T10:07:35.851Z,8.65
2022-12-20T10:10:10.997Z,8.69
2022-12-20T10:12:44.427Z,8.71
2022-12-20T10:15:19.655Z,8.72
2022-12-20T10:17:55.934Z,8.71
2022-12-20T10:20:31.981Z,8.74
2022-12-20T10:23:02.751Z,8.72
2022-12-20T10:25:32.047Z,8.80
2022-12-20T10:28:02.617Z,8.83
2022-12-20T10:30:30.615Z,8.82
2022-12-20T10:32:59.270Z,8.82
2022-12-20T10:35:31.234Z,8.81
2022-12-20T10:38:07.609Z,8.83
2022-12-20T10:41:10.154Z,8.91
2022-12-20T10:43:25.149Z,8.88
2022-12-20T10:45:57.624Z,8.94
2022-12-20T10:48:31.221Z,8.95
2022-12-20T10:51:01.954Z,8.94
2022-12-20T10:53:29.847Z,8.99
2022-12-20T10:56:14.549Z,8.97
2022-12-20T10:58:42.191Z,8.98
2022-12-20T11:01:15.631Z,8.99
2022-12-20T11:03:55.410Z,8.99
2022-12-20T11:06:26.703Z,8.98
2022-12-20T11:09:00.617Z,8.99
2022-12-20T11:11:29.135Z,9.04
2022-12-20T11:14:15.462Z,9.01
2022-12-20T11:16:43.548Z,9.06
2022-12-20T11:19:28.419Z,9.10
2022-12-20T11:22:03.149Z,9.08
2022-12-20T11:24:34.460Z,9.08
2022-12-20T11:27:15.815Z,9.10
2022-12-20T11:30:15.984Z,9.15
2022-12-20T11:32:59.844Z,9.12
2022-12-20T11:35:33.442Z,9.17
2022-12-20T11:38:10.032Z,9.11
2022-12-20T11:40:41.142Z,9.15
2022-12-20T11:43:22.699Z,9.11
2022-12-20T11:46:01.742Z,9.14
2022-12-20T11:48:40.907Z,9.15
2022-12-20T11:51:20.110Z,9.16
2022-12-20T11:53:56.125Z,9.21
2022-12-20T11:56:27.094Z,9.24
2022-12-20T11:58:57.427Z,9.35
2022-12-20T12:01:28.109Z,9.34
2022-12-20T12:04:04.130Z,9.38
2022-12-20T12:06:34.163Z,9.30
2022-12-20T12:09:09.606Z,9.28
2022-12-20T12:12:06.013Z,9.35
2022-12-20T12:14:32.671Z,9.31
2022-12-20T12:17:06.093Z,9.34
2022-12-20T12:19:34.425Z,9.33
2022-12-20T12:22:04.351Z,9.41
2022-12-20T12:24:38.514Z,9.34
2022-12-20T12:27:09.830Z,9.38
2022-12-20T12:29:40.286Z,9.42
2022-12-20T12:32:10.878Z,9.39
2022-12-20T12:34:49.983Z,9.43
2022-12-20T12:37:29.143Z,9.43
2022-12-20T12:40:31.789Z,9.41
2022-12-20T12:43:26.207Z,9.49
2022-12-20T12:45:57.304Z,9.59
2022-12-20T12:48:29.059Z,9.57
2022-12-20T12:50:58.131Z,9.67
2022-12-20T12:53:32.933Z,9.69
2022-12-20T12:56:47.401Z,9.67
2022-12-20T12:59:24.380Z,9.72
2022-12-20T13:01:53.900Z,9.68
2022-12-20T13:04:27.646Z,9.67
2022-12-20T13:07:24.623Z,9.72
2022-12-20T13:09:52.018Z,9.73
2022-12-20T13:12:58.636Z,9.69
2022-12-20T13:15:49.080Z,9.68
2022-12-20T13:18:26.941Z,9.70
2022-12-20T13:21:28.395Z,9.73
2022-12-20T13:24:42.604Z,9.74
2022-12-20T13:27:19.286Z,9.73
2022-12-20T13:30:28.767Z,9.76
2022-12-20T13:33:18.983Z,9.71
2022-12-20T13:36:03.058Z,9.78
2022-12-20T13:38:42.699Z,9.76
2022-12-20T13:41:21.050Z,9.81
2022-12-20T13:43:49.654Z,9.84
2022-12-20T13:46:22.563Z,9.74
2022-12-20T13:48:54.053Z,9.83
2022-12-20T13:51:22.935Z,9.79
2022-12-20T13:53:53.856Z,9.88
2022-12-20T13:56:33.954Z,9.80
2022-12-20T13:59:05.571Z,9.85
2022-12-20T14:01:34.312Z,9.87
2022-12-20T14:04:07.009Z,9.75
2022-12-20T14:06:34.823Z,9.91
2022-12-20T14:09:03.202Z,9.81
2022-12-20T14:11:30.602Z,9.84
2022-12-20T14:13:59.239Z,9.85
2022-12-20T14:16:28.059Z,9.92
2022-12-20T14:19:03.021Z,9.83
2022-12-20T14:21:32.411Z,9.90
2022-12-20T14:24:01.521Z,9.91
2022-12-20T14:26:30.712Z,9.85
2022-12-20T14:28:59.978Z,9.87
2022-12-20T14:31:30.207Z,9.88
2022-12-20T14:34:05.606Z,9.83
2022-12-20T14:36:35.965Z,9.85
2022-12-20T14:39:23.224Z,9.91
2022-12-20T14:41:57.058Z,9.83
2022-12-20T14:44:27.109Z,9.78
2022-12-20T14:46:56.099Z,9.85
2022-12-20T14:49:25.673Z,9.82
2022-12-20T14:52:07.413Z,9.87
2022-12-20T14:57:26.161Z,9.81
2022-12-20T15:00:07.383Z,9.81
2022-12-20T15:02:38.969Z,9.87
2022-12-20T15:05:38.566Z,9.78
2022-12-20T15:08:18.407Z,9.80
2022-12-20T15:10:52.941Z,9.81
2022-12-20T15:13:23.132Z,9.84
2022-12-20T15:15:50.567Z,9.80
2022-12-20T15:18:20.154Z,9.78
2022-12-20T15:20:49.148Z,9.72
2022-12-20T15:23:19.490Z,9.70
2022-12-20T15:25:47.431Z,9.69
2022-12-20T15:28:16.702Z,9.72
2022-12-20T15:30:44.114Z,9.64
2022-12-20T15:33:19.781Z,9.65
2022-12-20T15:35:47.387Z,9.66
2022-12-20T15:38:17.272Z,9.67
2022-12-20T15:40:48.102Z,9.74
2022-12-20T15:43:18.647Z,9.73
2022-12-20T15:45:48.684Z,9.73
2022-12-20T15:48:17.699Z,9.73
2022-12-20T15:50:48.963Z,9.73
2022-12-20T15:53:19.859Z,9.68
2022-12-20T15:55:48.583Z,9.68
2022-12-20T15:58:15.950Z,9.69
2022-12-20T16:00:43.469Z,9.74
2022-12-20T16:03:15.610Z,9.62
2022-12-20T16:05:43.342Z,9.69
2022-12-20T16:08:12.304Z,9.64
2022-12-20T16:10:39.970Z,9.65
2022-12-20T16:13:20.785Z,9.67
2022-12-20T16:15:48.531Z,9.74
2022-12-20T16:18:16.003Z,9.75
2022-12-20T16:20:43.493Z,9.72
2022-12-20T16:23:17.067Z,9.82
2022-12-20T16:25:44.759Z,9.93
2022-12-20T16:28:13.456Z,9.82
2022-12-20T16:30:41.129Z,9.91
2022-12-20T16:33:17.409Z,9.98
2022-12-20T16:35:44.769Z,10.00
2022-12-20T16:38:12.140Z,10.04
2022-12-20T16:40:39.526Z,10.03
2022-12-20T16:43:07.731Z,10.02
2022-12-20T16:45:36.450Z,10.09
2022-12-20T16:48:03.805Z,10.06
2022-12-20T16:50:31.145Z,10.00
2022-12-20T16:52:58.471Z,10.08
2022-12-20T16:55:27.506Z,10.08
2022-12-20T16:57:55.236Z,10.05
2022-12-20T17:00:25.047Z,10.14
2022-12-20T17:02:54.253Z,10.10
2022-12-20T17:05:26.059Z,10.14
2022-12-20T17:07:53.404Z,10.13
2022-12-20T17:10:23.166Z,10.07
2022-12-20T17:12:50.913Z,10.05
2022-12-20T17:15:21.478Z,10.12
2022-12-20T17:17:49.554Z,10.13
2022-12-20T17:20:19.269Z,10.11
2022-12-20T17:25:36.883Z,10.14
2022-12-20T17:28:04.450Z,10.12
2022-12-20T17:30:31.817Z,10.00
2022-12-20T17:32:59.275Z,9.99
2022-12-20T17:35:30.727Z,9.97
2022-12-20T17:37:58.631Z,10.00
2022-12-20T17:40:27.360Z,9.97
2022-12-20T17:42:55.274Z,9.96
2022-12-20T17:45:29.255Z,9.97
2022-12-20T17:47:57.948Z,9.95
2022-12-20T17:50:26.291Z,9.94
2022-12-20T17:52:55.419Z,9.85
2022-12-20T17:55:24.876Z,9.89
2022-12-20T17:57:52.816Z,9.89
2022-12-20T18:00:24.967Z,9.88
2022-12-20T18:02:53.671Z,9.98
2022-12-20T18:05:22.034Z,9.95
2022-12-20T18:07:55.200Z,9.91
2022-12-20T18:10:23.609Z,9.95
2022-12-20T18:12:51.351Z,9.99
2022-12-20T18:15:20.033Z,9.98
2022-12-20T18:17:47.819Z,10.07
2022-12-20T18:20:15.444Z,10.04
2022-12-20T18:22:42.767Z,10.05
2022-12-20T18:25:13.755Z,10.04
2022-12-20T18:27:42.245Z,10.07
2022-12-20T18:30:12.948Z,10.05
2022-12-20T18:32:40.722Z,10.08
2022-12-20T18:35:10.113Z,10.08
2022-12-20T18:37:37.799Z,10.10
2022-12-20T18:40:06.059Z,10.13
2022-12-20T18:42:34.858Z,10.16
2022-12-20T18:45:06.985Z,10.20
2022-12-20T18:47:35.914Z,10.17
2022-12-20T18:50:03.252Z,10.23
2022-12-20T18:52:30.582Z,10.19
2022-12-20T18:54:58.126Z,10.22
2022-12-20T18:57:25.443Z,10.12
2022-12-20T18:59:54.177Z,10.18
2022-12-20T19:02:22.191Z,10.18
2022-12-20T19:04:49.666Z,10.16
2022-12-20T19:07:17.021Z,10.17
2022-12-20T19:09:44.587Z,10.17
2022-12-20T19:12:11.953Z,10.26
2022-12-20T19:14:39.281Z,10.17
2022-12-20T19:17:08.281Z,10.25
2022-12-20T19:19:35.785Z,10.24
2022-12-20T19:22:03.154Z,10.25
2022-12-20T19:24:30.523Z,10.27
2022-12-20T19:26:58.455Z,10.27
2022-12-20T19:29:25.794Z,10.28
2022-12-20T19:31:53.154Z,10.29
2022-12-20T19:34:22.026Z,10.31
2022-12-20T19:36:49.438Z,10.30
2022-12-20T19:39:19.844Z,10.30
2022-12-20T19:42:15.619Z,10.26
2022-12-20T19:44:35.523Z,10.27
2022-12-20T19:47:06.140Z,10.27
2022-12-20T19:49:35.650Z,10.32
2022-12-20T19:52:03.315Z,10.31
2022-12-20T19:54:30.653Z,10.28
2022-12-20T19:56:58.629Z,10.27
2022-12-20T19:59:26.162Z,10.37
2022-12-20T20:01:53.706Z,10.34
2022-12-20T20:04:21.111Z,10.39
2022-12-20T20:06:49.843Z,10.38
2022-12-20T20:09:17.204Z,10.36
2022-12-20T20:11:44.573Z,10.36
2022-12-20T20:14:11.938Z,10.36
2022-12-20T20:16:39.310Z,10.29
2022-12-20T20:19:06.828Z,10.33
2022-12-20T20:21:36.153Z,10.36
2022-12-20T20:24:05.565Z,10.39
2022-12-20T20:26:33.001Z,10.35
2022-12-20T20:29:01.584Z,10.32
2022-12-20T20:31:29.046Z,10.36
2022-12-20T20:33:58.078Z,10.40
2022-12-20T20:36:25.527Z,10.42
2022-12-20T20:38:52.932Z,10.35
2022-12-20T20:41:21.600Z,10.36
2022-12-20T20:43:49.164Z,10.42
2022-12-20T20:46:18.097Z,10.33
2022-12-20T20:48:45.849Z,10.40
2022-12-20T20:51:13.825Z,10.39
2022-12-20T20:53:41.491Z,10.40
2022-12-20T20:56:09.546Z,10.39
2022-12-20T20:58:38.475Z,10.37
2022-12-20T21:01:08.299Z,10.41
2022-12-20T21:03:36.733Z,10.44
2022-12-20T21:08:53.881Z,10.44
2022-12-20T21:11:21.276Z,10.41
2022-12-20T21:13:50.150Z,10.41
2022-12-20T21:16:20.573Z,10.38
2022-12-20T21:18:51.407Z,10.38
2022-12-20T21:21:18.947Z,10.35
2022-12-20T21:23:47.033Z,10.33
2022-12-20T21:26:14.923Z,10.36
2022-12-20T21:28:43.695Z,10.37
2022-12-20T21:31:14.175Z,10.38
2022-12-20T21:33:41.783Z,10.41
2022-12-20T21:36:14.590Z,10.24
2022-12-20T21:38:42.639Z,10.28
2022-12-20T21:41:13.321Z,10.28
2022-12-20T21:43:40.713Z,10.26
2022-12-20T21:46:13.153Z,10.31
2022-12-20T21:48:43.074Z,10.39
2022-12-20T21:51:12.246Z,10.26
2022-12-20T21:53:42.905Z,10.36
2022-12-20T21:56:10.812Z,10.30
2022-12-20T21:58:38.235Z,10.39
2022-12-20T22:01:07.696Z,10.35
2022-12-20T22:03:35.317Z,10.32
2022-12-20T22:06:04.717Z,10.26
2022-12-20T22:08:32.898Z,10.29
2022-12-20T22:11:02.519Z,10.31
2022-12-20T22:13:33.233Z,10.34
2022-12-20T22:16:06.744Z,10.37
2022-12-20T22:18:34.297Z,10.26
2022-12-20T22:21:04.807Z,10.24
2022-12-20T22:23:32.292Z,10.23
2022-12-20T22:26:02.523Z,10.30
2022-12-20T22:28:29.896Z,10.17
2022-12-20T22:30:57.556Z,10.17
2022-12-20T22:33:25.242Z,10.27
2022-12-20T22:35:52.636Z,10.31
2022-12-20T22:38:21.363Z,10.21
2022-12-20T22:40:48.721Z,10.21
2022-12-20T22:43:16.119Z,10.16
2022-12-20T22:45:43.533Z,10.18
2022-12-20T22:48:11.105Z,10.30
2022-12-20T22:50:38.552Z,10.26
2022-12-20T22:53:05.918Z,10.36
2022-12-20T22:55:35.341Z,10.32
2022-12-20T22:58:02.699Z,10.19
2022-12-20T23:00:30.046Z,10.23
2022-12-20T23:02:57.594Z,10.31
2022-12-20T23:05:25.082Z,10.27
2022-12-20T23:07:52.431Z,10.32
2022-12-20T23:10:33.817Z,10.28
2022-12-20T23:13:20.156Z,10.32
2022-12-20T23:15:48.167Z,10.28
2022-12-20T23:18:15.508Z,10.28
2022-12-20T23:21:00.484Z,10.22
2022-12-20T23:23:27.895Z,10.42
2022-12-20T23:25:55.252Z,10.34
2022-12-20T23:28:23.962Z,10.33
2022-12-20T23:30:51.314Z,10.29
2022-12-20T23:33:19.006Z,10.29
2022-12-20T23:35:46.389Z,10.30
2022-12-20T23:38:13.753Z,10.16
2022-12-20T23:40:41.620Z,10.12
2022-12-20T23:43:09.316Z,10.13
2022-12-20T23:45:38.142Z,10.14
2022-12-20T23:48:06.728Z,10.10
2022-12-20T23:50:34.133Z,10.21
2022-12-20T23:53:03.573Z,10.11
2022-12-20T23:55:30.953Z,10.08
2022-12-20T23:57:58.382Z,10.09
